sensor_id;sensor_type;location;lat;lon;timestamp;pressure;altitude;pressure_sealevel;temperature;humidity
43553;BME280;29153;42.696;23.218;2022-07-22T00:01:08;94540.81;;;17.40;77.21
43553;BME280;29153;42.696;23.218;2022-07-22T00:03:36;94542.31;;;17.44;77.47
43553;BME280;29153;42.696;23.218;2022-07-22T00:06:04;94539.33;;;17.37;77.17
43553;BME280;29153;42.696;23.218;2022-07-22T00:08:32;94531.50;;;17.38;77.13
43553;BME280;29153;42.696;23.218;2022-07-22T00:10:59;94541.22;;;17.45;77.54
43553;BME280;29153;42.696;23.218;2022-07-22T00:13:27;94539.88;;;17.45;78.07
43553;BME280;29153;42.696;23.218;2022-07-22T00:15:55;94540.48;;;17.42;78.15
43553;BME280;29153;42.696;23.218;2022-07-22T00:18:22;94537.50;;;17.43;78.20
43553;BME280;29153;42.696;23.218;2022-07-22T00:20:50;94540.58;;;17.39;78.37
43553;BME280;29153;42.696;23.218;2022-07-22T00:23:18;94540.58;;;17.39;78.75
43553;BME280;29153;42.696;23.218;2022-07-22T00:25:45;94541.42;;;17.37;78.54
43553;BME280;29153;42.696;23.218;2022-07-22T00:28:13;94548.91;;;17.38;79.01
43553;BME280;29153;42.696;23.218;2022-07-22T00:30:40;94542.31;;;17.35;79.33
43553;BME280;29153;42.696;23.218;2022-07-22T00:33:08;94536.55;;;17.30;79.65
43553;BME280;29153;42.696;23.218;2022-07-22T00:35:36;94545.38;;;17.31;79.96
43553;BME280;29153;42.696;23.218;2022-07-22T00:38:03;94542.70;;;17.22;79.82
43553;BME280;29153;42.696;23.218;2022-07-22T00:40:31;94551.02;;;17.12;79.73
43553;BME280;29153;42.696;23.218;2022-07-22T00:43:00;94554.34;;;17.09;80.32
43553;BME280;29153;42.696;23.218;2022-07-22T00:45:28;94550.85;;;17.00;80.66
43553;BME280;29153;42.696;23.218;2022-07-22T00:47:55;94548.11;;;16.94;80.82
43553;BME280;29153;42.696;23.218;2022-07-22T00:50:23;94549.86;;;16.79;81.00
43553;BME280;29153;42.696;23.218;2022-07-22T00:52:51;94544.81;;;16.77;80.74
43553;BME280;29153;42.696;23.218;2022-07-22T00:55:19;94547.14;;;16.62;81.27
43553;BME280;29153;42.696;23.218;2022-07-22T00:57:47;94549.52;;;16.63;81.19
43553;BME280;29153;42.696;23.218;2022-07-22T01:00:17;94547.30;;;16.65;81.01
43553;BME280;29153;42.696;23.218;2022-07-22T01:02:46;94545.64;;;16.58;81.27
43553;BME280;29153;42.696;23.218;2022-07-22T01:05:14;94549.21;;;16.54;81.91
43553;BME280;29153;42.696;23.218;2022-07-22T01:07:42;94555.89;;;16.54;82.31
43553;BME280;29153;42.696;23.218;2022-07-22T01:10:09;94555.78;;;16.48;82.63
43553;BME280;29153;42.696;23.218;2022-07-22T01:12:37;94549.02;;;16.42;83.01
43553;BME280;29153;42.696;23.218;2022-07-22T01:15:05;94554.38;;;16.30;82.83
43553;BME280;29153;42.696;23.218;2022-07-22T01:17:33;94557.42;;;16.26;82.76
43553;BME280;29153;42.696;23.218;2022-07-22T01:20:05;94558.84;;;16.24;82.99
43553;BME280;29153;42.696;23.218;2022-07-22T01:22:32;94556.25;;;16.21;83.32
43553;BME280;29153;42.696;23.218;2022-07-22T01:25:00;94555.88;;;16.14;83.29
43553;BME280;29153;42.696;23.218;2022-07-22T01:27:28;94555.59;;;16.05;83.47
43553;BME280;29153;42.696;23.218;2022-07-22T01:29:56;94552.65;;;15.95;83.84
43553;BME280;29153;42.696;23.218;2022-07-22T01:32:23;94552.89;;;15.85;84.34
43553;BME280;29153;42.696;23.218;2022-07-22T01:34:51;94550.30;;;15.82;84.93
43553;BME280;29153;42.696;23.218;2022-07-22T01:37:18;94548.16;;;15.71;85.24
43553;BME280;29153;42.696;23.218;2022-07-22T01:39:47;94551.19;;;15.67;85.62
43553;BME280;29153;42.696;23.218;2022-07-22T01:42:14;94558.23;;;15.63;86.01
43553;BME280;29153;42.696;23.218;2022-07-22T01:44:42;94550.59;;;15.59;86.23
43553;BME280;29153;42.696;23.218;2022-07-22T01:47:10;94552.10;;;15.62;85.84
43553;BME280;29153;42.696;23.218;2022-07-22T01:49:38;94562.31;;;15.60;85.85
43553;BME280;29153;42.696;23.218;2022-07-22T01:52:05;94563.69;;;15.58;86.01
43553;BME280;29153;42.696;23.218;2022-07-22T01:54:33;94565.53;;;15.60;85.66
43553;BME280;29153;42.696;23.218;2022-07-22T01:57:01;94566.06;;;15.59;85.45
43553;BME280;29153;42.696;23.218;2022-07-22T01:59:29;94571.92;;;15.47;85.71
43553;BME280;29153;42.696;23.218;2022-07-22T02:01:57;94569.66;;;15.41;85.67
43553;BME280;29153;42.696;23.218;2022-07-22T02:04:24;94566.20;;;15.40;85.89
43553;BME280;29153;42.696;23.218;2022-07-22T02:06:52;94568.39;;;15.38;85.96
43553;BME280;29153;42.696;23.218;2022-07-22T02:09:19;94574.45;;;15.30;86.24
43553;BME280;29153;42.696;23.218;2022-07-22T02:11:47;94571.53;;;15.29;86.61
43553;BME280;29153;42.696;23.218;2022-07-22T02:14:15;94575.43;;;15.34;86.59
43553;BME280;29153;42.696;23.218;2022-07-22T02:16:42;94576.27;;;15.32;86.67
43553;BME280;29153;42.696;23.218;2022-07-22T02:19:10;94576.27;;;15.32;86.72
43553;BME280;29153;42.696;23.218;2022-07-22T02:21:38;94586.11;;;15.34;86.74
43553;BME280;29153;42.696;23.218;2022-07-22T02:24:06;94590.15;;;15.32;86.93
43553;BME280;29153;42.696;23.218;2022-07-22T02:26:36;94589.66;;;15.19;87.02
43553;BME280;29153;42.696;23.218;2022-07-22T02:29:05;94589.45;;;15.15;87.14
43553;BME280;29153;42.696;23.218;2022-07-22T02:31:32;94582.56;;;15.14;87.04
43553;BME280;29153;42.696;23.218;2022-07-22T02:34:00;94591.46;;;15.10;87.00
43553;BME280;29153;42.696;23.218;2022-07-22T02:36:28;94587.56;;;15.04;87.18
43553;BME280;29153;42.696;23.218;2022-07-22T02:38:55;94587.24;;;15.06;87.26
43553;BME280;29153;42.696;23.218;2022-07-22T02:41:23;94587.81;;;15.06;87.30
43553;BME280;29153;42.696;23.218;2022-07-22T02:43:50;94584.17;;;15.01;87.29
43553;BME280;29153;42.696;23.218;2022-07-22T02:46:22;94582.08;;;14.98;87.57
43553;BME280;29153;42.696;23.218;2022-07-22T02:48:49;94579.76;;;14.94;87.69
43553;BME280;29153;42.696;23.218;2022-07-22T02:51:17;94583.32;;;14.90;87.72
43553;BME280;29153;42.696;23.218;2022-07-22T02:53:45;94579.00;;;14.80;87.91
43553;BME280;29153;42.696;23.218;2022-07-22T02:56:12;94578.06;;;14.74;88.40
43553;BME280;29153;42.696;23.218;2022-07-22T02:58:41;94579.58;;;14.77;88.64
43553;BME280;29153;42.696;23.218;2022-07-22T03:01:09;94577.42;;;14.79;88.67
43553;BME280;29153;42.696;23.218;2022-07-22T03:03:36;94579.30;;;14.79;88.70
43553;BME280;29153;42.696;23.218;2022-07-22T03:06:04;94577.45;;;14.77;88.49
43553;BME280;29153;42.696;23.218;2022-07-22T03:08:32;94576.98;;;14.75;88.67
43553;BME280;29153;42.696;23.218;2022-07-22T03:11:00;94574.16;;;14.69;89.13
43553;BME280;29153;42.696;23.218;2022-07-22T03:13:28;94572.25;;;14.72;89.07
43553;BME280;29153;42.696;23.218;2022-07-22T03:15:55;94574.56;;;14.76;89.10
43553;BME280;29153;42.696;23.218;2022-07-22T03:18:23;94572.66;;;14.90;88.65
43553;BME280;29153;42.696;23.218;2022-07-22T03:20:51;94577.91;;;15.06;88.14
43553;BME280;29153;42.696;23.218;2022-07-22T03:23:18;94571.81;;;15.17;87.86
43553;BME280;29153;42.696;23.218;2022-07-22T03:25:46;94576.51;;;15.22;87.59
43553;BME280;29153;42.696;23.218;2022-07-22T03:28:14;94572.44;;;15.25;87.95
43553;BME280;29153;42.696;23.218;2022-07-22T03:30:41;94573.66;;;15.30;87.89
43553;BME280;29153;42.696;23.218;2022-07-22T03:33:09;94572.52;;;15.33;87.58
43553;BME280;29153;42.696;23.218;2022-07-22T03:35:36;94579.55;;;15.40;87.26
43553;BME280;29153;42.696;23.218;2022-07-22T03:38:04;94585.02;;;15.46;87.17
43553;BME280;29153;42.696;23.218;2022-07-22T03:40:32;94580.19;;;15.48;87.03
43553;BME280;29153;42.696;23.218;2022-07-22T03:42:59;94579.86;;;15.53;86.72
43553;BME280;29153;42.696;23.218;2022-07-22T03:45:27;94586.21;;;15.54;86.27
43553;BME280;29153;42.696;23.218;2022-07-22T03:47:54;94581.98;;;15.53;86.39
43553;BME280;29153;42.696;23.218;2022-07-22T03:50:24;94584.58;;;15.56;85.98
43553;BME280;29153;42.696;23.218;2022-07-22T03:52:52;94591.14;;;15.72;86.18
43553;BME280;29153;42.696;23.218;2022-07-22T03:55:20;94598.67;;;15.81;85.96
43553;BME280;29153;42.696;23.218;2022-07-22T03:57:47;94588.12;;;15.87;85.93
43553;BME280;29153;42.696;23.218;2022-07-22T04:00:15;94595.07;;;15.97;85.90
43553;BME280;29153;42.696;23.218;2022-07-22T04:02:43;94587.11;;;16.05;85.91
43553;BME280;29153;42.696;23.218;2022-07-22T04:05:10;94597.05;;;16.13;86.13
43553;BME280;29153;42.696;23.218;2022-07-22T04:07:38;94599.06;;;16.19;85.87
43553;BME280;29153;42.696;23.218;2022-07-22T04:10:06;94595.72;;;16.24;85.89
43553;BME280;29153;42.696;23.218;2022-07-22T04:12:36;94602.28;;;16.29;85.90
43553;BME280;29153;42.696;23.218;2022-07-22T04:15:05;94601.66;;;16.32;86.16
43553;BME280;29153;42.696;23.218;2022-07-22T04:17:34;94606.50;;;16.42;86.29
43553;BME280;29153;42.696;23.218;2022-07-22T04:20:02;94602.83;;;16.49;86.16
43553;BME280;29153;42.696;23.218;2022-07-22T04:22:30;94604.73;;;16.59;86.32
43553;BME280;29153;42.696;23.218;2022-07-22T04:24:58;94603.64;;;16.69;86.20
43553;BME280;29153;42.696;23.218;2022-07-22T04:27:25;94602.58;;;16.78;86.19
43553;BME280;29153;42.696;23.218;2022-07-22T04:29:53;94611.73;;;16.86;86.05
43553;BME280;29153;42.696;23.218;2022-07-22T04:32:21;94614.38;;;16.97;86.29
43553;BME280;29153;42.696;23.218;2022-07-22T04:34:48;94615.33;;;17.01;86.29
43553;BME280;29153;42.696;23.218;2022-07-22T04:37:16;94614.48;;;17.12;84.49
43553;BME280;29153;42.696;23.218;2022-07-22T04:39:45;94619.70;;;17.25;84.85
43553;BME280;29153;42.696;23.218;2022-07-22T04:42:12;94621.16;;;17.40;83.92
43553;BME280;29153;42.696;23.218;2022-07-22T04:44:40;94624.55;;;17.52;82.71
43553;BME280;29153;42.696;23.218;2022-07-22T04:47:14;94622.55;;;17.66;81.59
43553;BME280;29153;42.696;23.218;2022-07-22T04:49:38;94628.91;;;17.76;81.27
43553;BME280;29153;42.696;23.218;2022-07-22T04:52:06;94627.97;;;17.89;80.58
43553;BME280;29153;42.696;23.218;2022-07-22T04:54:35;94628.84;;;17.96;77.80
43553;BME280;29153;42.696;23.218;2022-07-22T04:57:03;94631.11;;;18.17;75.61
43553;BME280;29153;42.696;23.218;2022-07-22T04:59:30;94629.64;;;18.37;75.23
43553;BME280;29153;42.696;23.218;2022-07-22T05:01:58;94635.55;;;18.53;76.02
43553;BME280;29153;42.696;23.218;2022-07-22T05:04:26;94633.31;;;18.64;75.98
43553;BME280;29153;42.696;23.218;2022-07-22T05:06:53;94635.59;;;18.68;73.99
43553;BME280;29153;42.696;23.218;2022-07-22T05:09:21;94639.07;;;18.83;74.18
43553;BME280;29153;42.696;23.218;2022-07-22T05:11:49;94638.20;;;19.00;72.50
43553;BME280;29153;42.696;23.218;2022-07-22T05:14:16;94640.09;;;19.08;72.82
43553;BME280;29153;42.696;23.218;2022-07-22T05:16:44;94632.67;;;19.20;73.05
43553;BME280;29153;42.696;23.218;2022-07-22T05:19:12;94636.37;;;19.36;73.32
43553;BME280;29153;42.696;23.218;2022-07-22T05:21:39;94645.80;;;19.50;72.69
43553;BME280;29153;42.696;23.218;2022-07-22T05:24:07;94645.95;;;19.60;71.21
43553;BME280;29153;42.696;23.218;2022-07-22T05:26:35;94646.45;;;19.68;70.99
43553;BME280;29153;42.696;23.218;2022-07-22T05:29:02;94648.76;;;19.78;69.65
43553;BME280;29153;42.696;23.218;2022-07-22T05:31:30;94651.50;;;19.90;68.64
43553;BME280;29153;42.696;23.218;2022-07-22T05:33:58;94651.78;;;19.97;67.91
43553;BME280;29153;42.696;23.218;2022-07-22T05:36:26;94650.84;;;20.14;68.95
43553;BME280;29153;42.696;23.218;2022-07-22T05:38:53;94648.95;;;20.21;68.16
43553;BME280;29153;42.696;23.218;2022-07-22T05:41:21;94658.00;;;20.31;67.73
43553;BME280;29153;42.696;23.218;2022-07-22T05:43:49;94646.13;;;20.38;66.98
43553;BME280;29153;42.696;23.218;2022-07-22T05:46:17;94651.42;;;20.47;65.76
43553;BME280;29153;42.696;23.218;2022-07-22T05:48:44;94646.42;;;20.63;64.04
43553;BME280;29153;42.696;23.218;2022-07-22T05:51:13;94654.64;;;20.73;64.78
43553;BME280;29153;42.696;23.218;2022-07-22T05:53:42;94652.08;;;20.82;65.35
43553;BME280;29153;42.696;23.218;2022-07-22T05:56:10;94645.47;;;20.98;64.76
43553;BME280;29153;42.696;23.218;2022-07-22T05:58:39;94642.93;;;21.20;64.83
43553;BME280;29153;42.696;23.218;2022-07-22T06:01:08;94642.93;;;21.20;64.83
43553;BME280;29153;42.696;23.218;2022-07-22T06:03:36;94644.38;;;21.35;64.46
43553;BME280;29153;42.696;23.218;2022-07-22T06:06:04;94648.30;;;21.50;64.20
43553;BME280;29153;42.696;23.218;2022-07-22T06:08:34;94648.61;;;21.61;62.87
43553;BME280;29153;42.696;23.218;2022-07-22T06:11:01;94643.75;;;21.78;62.03
43553;BME280;29153;42.696;23.218;2022-07-22T06:13:29;94651.61;;;22.02;61.55
43553;BME280;29153;42.696;23.218;2022-07-22T06:15:57;94646.03;;;22.16;61.03
43553;BME280;29153;42.696;23.218;2022-07-22T06:18:25;94643.27;;;22.35;60.75
43553;BME280;29153;42.696;23.218;2022-07-22T06:20:53;94643.00;;;22.46;61.78
43553;BME280;29153;42.696;23.218;2022-07-22T06:23:22;94645.97;;;22.56;61.09
43553;BME280;29153;42.696;23.218;2022-07-22T06:25:50;94644.55;;;22.75;61.30
43553;BME280;29153;42.696;23.218;2022-07-22T06:28:17;94645.34;;;22.91;59.39
43553;BME280;29153;42.696;23.218;2022-07-22T06:30:50;94647.93;;;23.09;59.31
43553;BME280;29153;42.696;23.218;2022-07-22T06:33:14;94653.40;;;23.28;58.16
43553;BME280;29153;42.696;23.218;2022-07-22T06:35:42;94651.30;;;23.43;57.10
43553;BME280;29153;42.696;23.218;2022-07-22T06:38:10;94651.75;;;23.55;56.92
43553;BME280;29153;42.696;23.218;2022-07-22T06:40:37;94646.37;;;23.65;58.37
43553;BME280;29153;42.696;23.218;2022-07-22T06:43:05;94656.80;;;23.82;57.46
43553;BME280;29153;42.696;23.218;2022-07-22T06:45:32;94653.96;;;23.94;57.76
43553;BME280;29153;42.696;23.218;2022-07-22T06:48:00;94656.31;;;24.05;54.30
43553;BME280;29153;42.696;23.218;2022-07-22T06:50:30;94656.48;;;24.12;54.21
43553;BME280;29153;42.696;23.218;2022-07-22T06:52:57;94659.30;;;24.25;52.82
43553;BME280;29153;42.696;23.218;2022-07-22T06:55:26;94655.43;;;24.36;52.84
43553;BME280;29153;42.696;23.218;2022-07-22T06:57:53;94652.72;;;24.45;53.54
43553;BME280;29153;42.696;23.218;2022-07-22T07:00:24;94649.73;;;24.51;52.58
43553;BME280;29153;42.696;23.218;2022-07-22T07:02:52;94647.20;;;24.61;52.52
43553;BME280;29153;42.696;23.218;2022-07-22T07:05:19;94650.48;;;24.70;52.86
43553;BME280;29153;42.696;23.218;2022-07-22T07:07:47;94645.34;;;24.75;52.10
43553;BME280;29153;42.696;23.218;2022-07-22T07:10:15;94656.73;;;24.84;51.97
43553;BME280;29153;42.696;23.218;2022-07-22T07:12:43;94652.18;;;24.88;49.58
43553;BME280;29153;42.696;23.218;2022-07-22T07:15:11;94665.99;;;25.02;50.36
43553;BME280;29153;42.696;23.218;2022-07-22T07:17:38;94664.83;;;25.03;51.57
43553;BME280;29153;42.696;23.218;2022-07-22T07:20:07;94657.83;;;25.25;50.57
43553;BME280;29153;42.696;23.218;2022-07-22T07:22:34;94655.52;;;25.36;50.18
43553;BME280;29153;42.696;23.218;2022-07-22T07:25:06;94657.47;;;25.49;49.14
43553;BME280;29153;42.696;23.218;2022-07-22T07:27:35;94658.29;;;25.63;49.39
43553;BME280;29153;42.696;23.218;2022-07-22T07:30:09;94662.67;;;25.84;46.92
43553;BME280;29153;42.696;23.218;2022-07-22T07:32:41;94662.00;;;26.07;46.55
43553;BME280;29153;42.696;23.218;2022-07-22T07:35:09;94664.63;;;26.43;47.45
43553;BME280;29153;42.696;23.218;2022-07-22T07:37:37;94661.28;;;26.90;45.60
43553;BME280;29153;42.696;23.218;2022-07-22T07:40:05;94659.42;;;27.42;45.33
43553;BME280;29153;42.696;23.218;2022-07-22T07:42:33;94658.53;;;27.78;44.17
43553;BME280;29153;42.696;23.218;2022-07-22T07:45:01;94658.42;;;28.22;41.74
43553;BME280;29153;42.696;23.218;2022-07-22T07:47:30;94661.20;;;28.78;40.75
43553;BME280;29153;42.696;23.218;2022-07-22T07:49:58;94655.41;;;29.01;39.42
43553;BME280;29153;42.696;23.218;2022-07-22T07:52:27;94662.67;;;29.49;41.75
43553;BME280;29153;42.696;23.218;2022-07-22T07:54:55;94656.00;;;30.06;40.66
43553;BME280;29153;42.696;23.218;2022-07-22T07:57:24;94650.20;;;30.51;39.86
43553;BME280;29153;42.696;23.218;2022-07-22T07:59:52;94648.00;;;30.65;38.35
43553;BME280;29153;42.696;23.218;2022-07-22T08:02:19;94658.44;;;30.88;39.33
43553;BME280;29153;42.696;23.218;2022-07-22T08:04:47;94659.51;;;31.08;34.88
43553;BME280;29153;42.696;23.218;2022-07-22T08:07:21;94654.47;;;31.29;34.53
43553;BME280;29153;42.696;23.218;2022-07-22T08:09:45;94663.75;;;31.71;33.74
43553;BME280;29153;42.696;23.218;2022-07-22T08:12:13;94661.20;;;32.17;35.78
43553;BME280;29153;42.696;23.218;2022-07-22T08:14:45;94655.27;;;32.56;33.41
43553;BME280;29153;42.696;23.218;2022-07-22T08:17:09;94666.13;;;32.66;31.24
43553;BME280;29153;42.696;23.218;2022-07-22T08:19:37;94655.22;;;33.05;31.55
43553;BME280;29153;42.696;23.218;2022-07-22T08:22:05;94659.81;;;33.15;29.83
43553;BME280;29153;42.696;23.218;2022-07-22T08:24:36;94650.23;;;33.38;30.56
43553;BME280;29153;42.696;23.218;2022-07-22T08:27:03;94658.50;;;33.08;30.72
43553;BME280;29153;42.696;23.218;2022-07-22T08:29:31;94662.97;;;32.98;29.68
43553;BME280;29153;42.696;23.218;2022-07-22T08:32:00;94658.13;;;33.48;32.35
43553;BME280;29153;42.696;23.218;2022-07-22T08:34:28;94655.48;;;33.79;29.92
43553;BME280;29153;42.696;23.218;2022-07-22T08:36:57;94657.86;;;34.00;29.72
43553;BME280;29153;42.696;23.218;2022-07-22T08:39:25;94665.86;;;34.14;29.71
43553;BME280;29153;42.696;23.218;2022-07-22T08:41:54;94660.52;;;33.84;33.57
43553;BME280;29153;42.696;23.218;2022-07-22T08:44:33;94652.31;;;33.92;32.25
43553;BME280;29153;42.696;23.218;2022-07-22T08:46:53;94654.56;;;34.20;30.71
43553;BME280;29153;42.696;23.218;2022-07-22T08:49:21;94651.26;;;34.29;27.35
43553;BME280;29153;42.696;23.218;2022-07-22T08:51:50;94651.11;;;34.36;29.83
43553;BME280;29153;42.696;23.218;2022-07-22T08:54:18;94647.84;;;34.33;29.45
43553;BME280;29153;42.696;23.218;2022-07-22T08:56:47;94653.27;;;34.37;28.90
43553;BME280;29153;42.696;23.218;2022-07-22T08:59:15;94657.39;;;34.37;30.88
43553;BME280;29153;42.696;23.218;2022-07-22T09:04:49;94658.17;;;34.68;29.65
43553;BME280;29153;42.696;23.218;2022-07-22T09:07:10;94660.66;;;34.51;28.41
43553;BME280;29153;42.696;23.218;2022-07-22T09:09:38;94659.57;;;34.77;30.22
43553;BME280;29153;42.696;23.218;2022-07-22T09:12:07;94657.67;;;35.09;30.93
43553;BME280;29153;42.696;23.218;2022-07-22T09:14:46;94661.95;;;34.55;29.07
43553;BME280;29153;42.696;23.218;2022-07-22T09:17:29;94658.94;;;34.57;30.45
43553;BME280;29153;42.696;23.218;2022-07-22T09:19:58;94662.42;;;34.81;29.27
43553;BME280;29153;42.696;23.218;2022-07-22T09:22:35;94664.50;;;34.85;30.96
43553;BME280;29153;42.696;23.218;2022-07-22T09:27:52;94658.77;;;34.68;30.23
43553;BME280;29153;42.696;23.218;2022-07-22T09:30:22;94660.21;;;34.92;28.16
43553;BME280;29153;42.696;23.218;2022-07-22T09:32:55;94661.55;;;34.76;28.17
43553;BME280;29153;42.696;23.218;2022-07-22T09:35:22;94660.48;;;34.98;29.45
43553;BME280;29153;42.696;23.218;2022-07-22T09:37:56;94654.06;;;35.04;29.21
43553;BME280;29153;42.696;23.218;2022-07-22T09:40:42;94657.64;;;34.93;30.89
43553;BME280;29153;42.696;23.218;2022-07-22T09:42:59;94659.18;;;34.86;29.10
43553;BME280;29153;42.696;23.218;2022-07-22T09:45:31;94648.02;;;34.54;29.58
43553;BME280;29153;42.696;23.218;2022-07-22T09:47:59;94653.90;;;34.24;27.81
43553;BME280;29153;42.696;23.218;2022-07-22T09:50:32;94645.30;;;34.22;27.84
43553;BME280;29153;42.696;23.218;2022-07-22T09:53:01;94644.05;;;34.27;29.12
43553;BME280;29153;42.696;23.218;2022-07-22T09:55:32;94641.10;;;34.46;33.25
43553;BME280;29153;42.696;23.218;2022-07-22T09:58:00;94640.98;;;34.72;31.32
43553;BME280;29153;42.696;23.218;2022-07-22T10:00:28;94638.86;;;34.88;31.37
43553;BME280;29153;42.696;23.218;2022-07-22T10:02:58;94641.59;;;34.80;29.10
43553;BME280;29153;42.696;23.218;2022-07-22T10:05:35;94636.51;;;34.59;28.03
43553;BME280;29153;42.696;23.218;2022-07-22T10:08:01;94637.03;;;34.73;28.65
43553;BME280;29153;42.696;23.218;2022-07-22T10:10:33;94631.77;;;34.71;30.82
43553;BME280;29153;42.696;23.218;2022-07-22T10:13:02;94624.68;;;34.90;28.27
43553;BME280;29153;42.696;23.218;2022-07-22T10:15:31;94630.13;;;34.54;28.15
43553;BME280;29153;42.696;23.218;2022-07-22T10:18:07;94632.06;;;34.45;29.72
43553;BME280;29153;42.696;23.218;2022-07-22T10:20:36;94614.87;;;34.21;28.34
43553;BME280;29153;42.696;23.218;2022-07-22T10:23:05;94620.19;;;34.20;28.90
43553;BME280;29153;42.696;23.218;2022-07-22T10:25:55;94619.27;;;34.15;29.28
43553;BME280;29153;42.696;23.218;2022-07-22T10:28:33;94614.06;;;34.01;27.79
43553;BME280;29153;42.696;23.218;2022-07-22T10:33:50;94620.48;;;34.26;29.01
43553;BME280;29153;42.696;23.218;2022-07-22T10:36:36;94616.78;;;34.44;30.94
43553;BME280;29153;42.696;23.218;2022-07-22T10:39:07;94620.48;;;34.26;27.85
43553;BME280;29153;42.696;23.218;2022-07-22T10:41:37;94616.72;;;34.36;29.31
43553;BME280;29153;42.696;23.218;2022-07-22T10:44:05;94614.96;;;34.46;26.52
43553;BME280;29153;42.696;23.218;2022-07-22T10:46:47;94605.59;;;34.43;28.41
43553;BME280;29153;42.696;23.218;2022-07-22T10:49:20;94615.72;;;34.18;28.64
43553;BME280;29153;42.696;23.218;2022-07-22T10:55:15;94617.67;;;34.06;27.80
43553;BME280;29153;42.696;23.218;2022-07-22T10:57:32;94610.27;;;34.03;25.71
43553;BME280;29153;42.696;23.218;2022-07-22T11:00:02;94606.09;;;34.18;26.83
43553;BME280;29153;42.696;23.218;2022-07-22T11:02:34;94609.20;;;34.40;26.93
43553;BME280;29153;42.696;23.218;2022-07-22T11:05:03;94616.80;;;33.90;26.27
43553;BME280;29153;42.696;23.218;2022-07-22T11:07:30;94605.21;;;33.90;29.06
43553;BME280;29153;42.696;23.218;2022-07-22T11:10:15;94602.88;;;34.00;27.72
43553;BME280;29153;42.696;23.218;2022-07-22T11:12:43;94596.22;;;34.09;28.77
43553;BME280;29153;42.696;23.218;2022-07-22T11:15:11;94600.23;;;34.16;25.30
43553;BME280;29153;42.696;23.218;2022-07-22T11:17:40;94597.27;;;34.47;27.17
43553;BME280;29153;42.696;23.218;2022-07-22T11:20:10;94596.09;;;34.56;27.60
43553;BME280;29153;42.696;23.218;2022-07-22T11:22:38;94600.55;;;34.58;26.07
43553;BME280;29153;42.696;23.218;2022-07-22T11:25:08;94601.17;;;34.38;27.28
43553;BME280;29153;42.696;23.218;2022-07-22T11:27:36;94593.78;;;34.35;28.66
43553;BME280;29153;42.696;23.218;2022-07-22T11:30:04;94588.84;;;34.26;25.34
43553;BME280;29153;42.696;23.218;2022-07-22T11:32:39;94585.99;;;34.49;27.32
43553;BME280;29153;42.696;23.218;2022-07-22T11:35:02;94587.73;;;34.51;25.07
43553;BME280;29153;42.696;23.218;2022-07-22T11:37:30;94579.40;;;34.55;26.24
43553;BME280;29153;42.696;23.218;2022-07-22T11:40:03;94581.41;;;34.35;26.91
43553;BME280;29153;42.696;23.218;2022-07-22T11:42:31;94590.33;;;34.31;25.99
43553;BME280;29153;42.696;23.218;2022-07-22T11:44:58;94582.38;;;34.24;24.82
43553;BME280;29153;42.696;23.218;2022-07-22T11:47:26;94587.30;;;34.13;25.26
43553;BME280;29153;42.696;23.218;2022-07-22T11:49:55;94576.08;;;34.04;24.82
43553;BME280;29153;42.696;23.218;2022-07-22T11:52:23;94581.16;;;34.17;24.83
43553;BME280;29153;42.696;23.218;2022-07-22T11:54:50;94580.23;;;34.24;26.48
43553;BME280;29153;42.696;23.218;2022-07-22T11:57:18;94580.38;;;34.17;26.01
43553;BME280;29153;42.696;23.218;2022-07-22T11:59:46;94583.73;;;34.05;26.64
43553;BME280;29153;42.696;23.218;2022-07-22T12:02:15;94588.15;;;33.79;25.63
43553;BME280;29153;42.696;23.218;2022-07-22T12:04:45;94578.71;;;33.80;26.10
43553;BME280;29153;42.696;23.218;2022-07-22T12:07:15;94580.84;;;33.92;26.39
43553;BME280;29153;42.696;23.218;2022-07-22T12:09:43;94577.62;;;34.17;27.39
43553;BME280;29153;42.696;23.218;2022-07-22T12:12:11;94577.67;;;34.13;24.87
43553;BME280;29153;42.696;23.218;2022-07-22T12:14:45;94571.58;;;34.14;26.70
43553;BME280;29153;42.696;23.218;2022-07-22T12:17:10;94575.64;;;33.86;25.55
43553;BME280;29153;42.696;23.218;2022-07-22T12:19:39;94566.50;;;33.81;25.13
43553;BME280;29153;42.696;23.218;2022-07-22T12:22:19;94565.59;;;34.19;26.86
43553;BME280;29153;42.696;23.218;2022-07-22T12:24:46;94566.56;;;34.09;24.50
43553;BME280;29153;42.696;23.218;2022-07-22T12:27:16;94562.34;;;33.84;25.10
43553;BME280;29153;42.696;23.218;2022-07-22T12:29:46;94557.99;;;33.95;25.37
43553;BME280;29153;42.696;23.218;2022-07-22T12:32:24;94552.94;;;34.02;25.00
43553;BME280;29153;42.696;23.218;2022-07-22T12:37:32;94557.73;;;33.78;25.94
43553;BME280;29153;42.696;23.218;2022-07-22T12:40:08;94558.14;;;33.88;26.31
43553;BME280;29153;42.696;23.218;2022-07-22T12:42:42;94557.09;;;33.59;25.40
43553;BME280;29153;42.696;23.218;2022-07-22T12:45:18;94558.94;;;33.54;26.32
43553;BME280;29153;42.696;23.218;2022-07-22T12:47:55;94552.19;;;33.70;26.91
43553;BME280;29153;42.696;23.218;2022-07-22T12:53:12;94546.95;;;33.87;27.37
43553;BME280;29153;42.696;23.218;2022-07-22T12:55:53;94551.00;;;33.71;26.34
43553;BME280;29153;42.696;23.218;2022-07-22T12:58:18;94555.20;;;33.64;26.53
43553;BME280;29153;42.696;23.218;2022-07-22T13:00:48;94546.55;;;33.77;28.92
43553;BME280;29153;42.696;23.218;2022-07-22T13:03:17;94550.00;;;33.93;28.58
43553;BME280;29153;42.696;23.218;2022-07-22T13:05:50;94544.17;;;33.79;25.56
43553;BME280;29153;42.696;23.218;2022-07-22T13:08:18;94542.88;;;33.95;26.63
43553;BME280;29153;42.696;23.218;2022-07-22T13:10:45;94544.88;;;34.03;26.08
43553;BME280;29153;42.696;23.218;2022-07-22T13:13:13;94544.46;;;34.04;27.86
43553;BME280;29153;42.696;23.218;2022-07-22T13:15:41;94543.28;;;33.94;25.83